sensor_id;sensor_type;location;lat;lon;timestamp;P1;durP1;ratioP1;P2;durP2;ratioP2
43552;SDS011;29153;42.696;23.218;2023-06-26T00:01:40;21.50;;;14.15;;
43552;SDS011;29153;42.696;23.218;2023-06-26T00:04:08;21.95;;;13.70;;
43552;SDS011;29153;42.696;23.218;2023-06-26T00:06:37;19.55;;;13.88;;
43552;SDS011;29153;42.696;23.218;2023-06-26T00:09:05;21.60;;;13.53;;
43552;SDS011;29153;42.696;23.218;2023-06-26T00:11:32;21.85;;;13.70;;
43552;SDS011;29153;42.696;23.218;2023-06-26T00:14:00;22.48;;;13.40;;
43552;SDS011;29153;42.696;23.218;2023-06-26T00:16:28;19.35;;;12.98;;
43552;SDS011;29153;42.696;23.218;2023-06-26T00:18:56;22.40;;;13.40;;
43552;SDS011;29153;42.696;23.218;2023-06-26T00:21:27;20.80;;;12.93;;
43552;SDS011;29153;42.696;23.218;2023-06-26T00:23:54;19.73;;;12.65;;
43552;SDS011;29153;42.696;23.218;2023-06-26T00:26:22;20.23;;;13.18;;
43552;SDS011;29153;42.696;23.218;2023-06-26T00:28:50;21.48;;;11.88;;
43552;SDS011;29153;42.696;23.218;2023-06-26T00:31:17;21.62;;;13.20;;
43552;SDS011;29153;42.696;23.218;2023-06-26T00:33:45;21.55;;;13.30;;
43552;SDS011;29153;42.696;23.218;2023-06-26T00:36:12;18.82;;;12.60;;
43552;SDS011;29153;42.696;23.218;2023-06-26T00:38:42;17.30;;;12.18;;
43552;SDS011;29153;42.696;23.218;2023-06-26T00:41:14;17.32;;;11.65;;
43552;SDS011;29153;42.696;23.218;2023-06-26T00:43:38;19.02;;;11.97;;
43552;SDS011;29153;42.696;23.218;2023-06-26T00:46:08;18.85;;;12.15;;
43552;SDS011;29153;42.696;23.218;2023-06-26T00:48:39;17.87;;;12.37;;
43552;SDS011;29153;42.696;23.218;2023-06-26T00:51:10;15.85;;;11.38;;
43552;SDS011;29153;42.696;23.218;2023-06-26T00:56:05;17.98;;;11.40;;
43552;SDS011;29153;42.696;23.218;2023-06-26T00:58:33;18.05;;;11.38;;
43552;SDS011;29153;42.696;23.218;2023-06-26T01:01:02;18.42;;;11.83;;
43552;SDS011;29153;42.696;23.218;2023-06-26T01:03:31;18.80;;;12.47;;
43552;SDS011;29153;42.696;23.218;2023-06-26T01:05:59;17.87;;;11.88;;
43552;SDS011;29153;42.696;23.218;2023-06-26T01:08:27;16.35;;;11.00;;
43552;SDS011;29153;42.696;23.218;2023-06-26T01:10:56;17.75;;;12.23;;
43552;SDS011;29153;42.696;23.218;2023-06-26T01:13:25;17.27;;;11.08;;
43552;SDS011;29153;42.696;23.218;2023-06-26T01:15:55;20.08;;;12.82;;
43552;SDS011;29153;42.696;23.218;2023-06-26T01:18:25;17.92;;;12.60;;
43552;SDS011;29153;42.696;23.218;2023-06-26T01:20:55;18.32;;;12.53;;
43552;SDS011;29153;42.696;23.218;2023-06-26T01:23:35;17.37;;;12.10;;
43552;SDS011;29153;42.696;23.218;2023-06-26T01:26:19;17.80;;;11.57;;
43552;SDS011;29153;42.696;23.218;2023-06-26T01:28:48;18.48;;;10.85;;
43552;SDS011;29153;42.696;23.218;2023-06-26T01:31:17;21.42;;;12.75;;
43552;SDS011;29153;42.696;23.218;2023-06-26T01:33:46;17.25;;;12.40;;
43552;SDS011;29153;42.696;23.218;2023-06-26T01:36:15;20.10;;;12.75;;
43552;SDS011;29153;42.696;23.218;2023-06-26T01:38:42;20.55;;;13.00;;
43552;SDS011;29153;42.696;23.218;2023-06-26T01:41:11;18.57;;;11.48;;
43552;SDS011;29153;42.696;23.218;2023-06-26T01:52:25;18.95;;;13.13;;
43552;SDS011;29153;42.696;23.218;2023-06-26T01:55:20;18.85;;;13.13;;
43552;SDS011;29153;42.696;23.218;2023-06-26T01:57:54;21.05;;;13.25;;
43552;SDS011;29153;42.696;23.218;2023-06-26T02:00:23;21.37;;;13.62;;
43552;SDS011;29153;42.696;23.218;2023-06-26T02:02:52;19.67;;;12.78;;
43552;SDS011;29153;42.696;23.218;2023-06-26T02:05:19;19.35;;;12.93;;
43552;SDS011;29153;42.696;23.218;2023-06-26T02:07:49;20.62;;;14.50;;
43552;SDS011;29153;42.696;23.218;2023-06-26T02:10:17;21.05;;;13.62;;
43552;SDS011;29153;42.696;23.218;2023-06-26T02:12:44;19.02;;;13.58;;
43552;SDS011;29153;42.696;23.218;2023-06-26T02:15:11;20.08;;;13.72;;
43552;SDS011;29153;42.696;23.218;2023-06-26T02:17:39;21.90;;;14.30;;
43552;SDS011;29153;42.696;23.218;2023-06-26T02:20:07;19.10;;;13.00;;
43552;SDS011;29153;42.696;23.218;2023-06-26T02:22:36;22.55;;;14.35;;
43552;SDS011;29153;42.696;23.218;2023-06-26T02:25:03;20.35;;;14.38;;
43552;SDS011;29153;42.696;23.218;2023-06-26T02:27:31;20.35;;;14.18;;
43552;SDS011;29153;42.696;23.218;2023-06-26T02:29:59;23.22;;;15.30;;
43552;SDS011;29153;42.696;23.218;2023-06-26T02:32:26;23.87;;;15.35;;
43552;SDS011;29153;42.696;23.218;2023-06-26T02:34:54;21.97;;;15.05;;
43552;SDS011;29153;42.696;23.218;2023-06-26T02:37:21;24.02;;;15.18;;
43552;SDS011;29153;42.696;23.218;2023-06-26T02:39:49;22.58;;;15.53;;
43552;SDS011;29153;42.696;23.218;2023-06-26T02:42:16;21.15;;;13.55;;
43552;SDS011;29153;42.696;23.218;2023-06-26T02:44:44;24.07;;;15.38;;
43552;SDS011;29153;42.696;23.218;2023-06-26T02:47:12;22.98;;;15.20;;
43552;SDS011;29153;42.696;23.218;2023-06-26T02:49:39;24.35;;;16.45;;
43552;SDS011;29153;42.696;23.218;2023-06-26T02:52:07;25.32;;;15.78;;
43552;SDS011;29153;42.696;23.218;2023-06-26T02:54:34;24.57;;;16.48;;
43552;SDS011;29153;42.696;23.218;2023-06-26T02:57:02;25.00;;;16.65;;
43552;SDS011;29153;42.696;23.218;2023-06-26T02:59:29;23.15;;;15.98;;
43552;SDS011;29153;42.696;23.218;2023-06-26T03:01:57;26.62;;;17.15;;
43552;SDS011;29153;42.696;23.218;2023-06-26T03:04:24;24.57;;;16.45;;
43552;SDS011;29153;42.696;23.218;2023-06-26T03:06:52;26.60;;;16.07;;
43552;SDS011;29153;42.696;23.218;2023-06-26T03:09:20;24.10;;;16.73;;
43552;SDS011;29153;42.696;23.218;2023-06-26T03:11:47;24.00;;;16.40;;
43552;SDS011;29153;42.696;23.218;2023-06-26T03:14:15;26.50;;;17.45;;
43552;SDS011;29153;42.696;23.218;2023-06-26T03:16:42;25.50;;;16.97;;
43552;SDS011;29153;42.696;23.218;2023-06-26T03:19:10;28.10;;;17.92;;
43552;SDS011;29153;42.696;23.218;2023-06-26T03:21:37;26.12;;;17.75;;
43552;SDS011;29153;42.696;23.218;2023-06-26T03:24:05;25.35;;;17.00;;
43552;SDS011;29153;42.696;23.218;2023-06-26T03:26:33;25.62;;;17.20;;
43552;SDS011;29153;42.696;23.218;2023-06-26T03:29:00;25.77;;;17.65;;
43552;SDS011;29153;42.696;23.218;2023-06-26T03:31:28;25.57;;;15.65;;
43552;SDS011;29153;42.696;23.218;2023-06-26T03:33:55;24.80;;;16.95;;
43552;SDS011;29153;42.696;23.218;2023-06-26T03:36:23;27.07;;;18.12;;
43552;SDS011;29153;42.696;23.218;2023-06-26T03:38:51;27.98;;;17.37;;
43552;SDS011;29153;42.696;23.218;2023-06-26T03:41:20;25.62;;;17.73;;
43552;SDS011;29153;42.696;23.218;2023-06-26T03:43:47;24.60;;;17.32;;
43552;SDS011;29153;42.696;23.218;2023-06-26T03:46:15;26.42;;;17.48;;
43552;SDS011;29153;42.696;23.218;2023-06-26T03:48:43;27.25;;;17.35;;
43552;SDS011;29153;42.696;23.218;2023-06-26T03:51:10;24.45;;;17.12;;
43552;SDS011;29153;42.696;23.218;2023-06-26T03:53:38;23.67;;;16.93;;
43552;SDS011;29153;42.696;23.218;2023-06-26T03:56:05;25.12;;;17.52;;
43552;SDS011;29153;42.696;23.218;2023-06-26T03:58:33;26.20;;;16.55;;
43552;SDS011;29153;42.696;23.218;2023-06-26T04:01:00;26.23;;;16.85;;
43552;SDS011;29153;42.696;23.218;2023-06-26T04:03:28;26.07;;;16.90;;
43552;SDS011;29153;42.696;23.218;2023-06-26T04:05:57;25.37;;;18.15;;
43552;SDS011;29153;42.696;23.218;2023-06-26T04:08:24;26.75;;;18.23;;
43552;SDS011;29153;42.696;23.218;2023-06-26T04:11:04;23.32;;;17.17;;
43552;SDS011;29153;42.696;23.218;2023-06-26T04:13:29;23.42;;;16.62;;
43552;SDS011;29153;42.696;23.218;2023-06-26T04:15:57;21.97;;;16.10;;
43552;SDS011;29153;42.696;23.218;2023-06-26T04:18:24;25.60;;;16.23;;
43552;SDS011;29153;42.696;23.218;2023-06-26T04:21:06;23.67;;;16.45;;
43552;SDS011;29153;42.696;23.218;2023-06-26T04:23:38;24.07;;;17.15;;
43552;SDS011;29153;42.696;23.218;2023-06-26T04:26:06;23.62;;;16.23;;
43552;SDS011;29153;42.696;23.218;2023-06-26T04:28:37;25.65;;;15.85;;
43552;SDS011;29153;42.696;23.218;2023-06-26T04:31:04;23.77;;;16.00;;
43552;SDS011;29153;42.696;23.218;2023-06-26T04:33:35;21.68;;;15.03;;
43552;SDS011;29153;42.696;23.218;2023-06-26T04:36:04;23.22;;;14.98;;
43552;SDS011;29153;42.696;23.218;2023-06-26T04:38:33;23.40;;;15.10;;
43552;SDS011;29153;42.696;23.218;2023-06-26T04:41:01;20.02;;;13.08;;
43552;SDS011;29153;42.696;23.218;2023-06-26T04:43:28;22.25;;;14.60;;
43552;SDS011;29153;42.696;23.218;2023-06-26T04:45:56;18.40;;;12.73;;
43552;SDS011;29153;42.696;23.218;2023-06-26T04:48:24;21.85;;;13.80;;
43552;SDS011;29153;42.696;23.218;2023-06-26T04:50:56;21.45;;;13.10;;
43552;SDS011;29153;42.696;23.218;2023-06-26T04:53:24;17.15;;;12.53;;
43552;SDS011;29153;42.696;23.218;2023-06-26T04:55:55;19.37;;;13.32;;
43552;SDS011;29153;42.696;23.218;2023-06-26T04:58:22;17.30;;;13.15;;
43552;SDS011;29153;42.696;23.218;2023-06-26T05:00:50;19.42;;;12.25;;
43552;SDS011;29153;42.696;23.218;2023-06-26T05:03:18;20.82;;;13.85;;
43552;SDS011;29153;42.696;23.218;2023-06-26T05:05:46;19.12;;;13.35;;
43552;SDS011;29153;42.696;23.218;2023-06-26T05:08:18;23.47;;;13.60;;
43552;SDS011;29153;42.696;23.218;2023-06-26T05:10:49;17.42;;;11.73;;
43552;SDS011;29153;42.696;23.218;2023-06-26T05:15:56;19.82;;;12.75;;
43552;SDS011;29153;42.696;23.218;2023-06-26T05:18:25;19.23;;;13.50;;
43552;SDS011;29153;42.696;23.218;2023-06-26T05:20:53;18.45;;;11.90;;
43552;SDS011;29153;42.696;23.218;2023-06-26T05:25:49;16.80;;;12.63;;
43552;SDS011;29153;42.696;23.218;2023-06-26T05:28:17;19.00;;;12.93;;
43552;SDS011;29153;42.696;23.218;2023-06-26T05:30:47;16.67;;;12.37;;
43552;SDS011;29153;42.696;23.218;2023-06-26T05:33:15;19.27;;;13.98;;
43552;SDS011;29153;42.696;23.218;2023-06-26T05:35:46;19.52;;;12.28;;
43552;SDS011;29153;42.696;23.218;2023-06-26T05:38:16;18.50;;;12.82;;
43552;SDS011;29153;42.696;23.218;2023-06-26T05:40:44;16.25;;;12.37;;
43552;SDS011;29153;42.696;23.218;2023-06-26T05:43:12;16.52;;;11.12;;
43552;SDS011;29153;42.696;23.218;2023-06-26T05:45:40;15.70;;;11.38;;
43552;SDS011;29153;42.696;23.218;2023-06-26T05:48:08;16.73;;;11.15;;
43552;SDS011;29153;42.696;23.218;2023-06-26T05:50:36;17.07;;;12.75;;
43552;SDS011;29153;42.696;23.218;2023-06-26T05:53:04;16.40;;;11.35;;
43552;SDS011;29153;42.696;23.218;2023-06-26T05:55:31;14.25;;;11.48;;
43552;SDS011;29153;42.696;23.218;2023-06-26T05:57:59;15.75;;;11.28;;
43552;SDS011;29153;42.696;23.218;2023-06-26T06:00:28;16.07;;;11.08;;
43552;SDS011;29153;42.696;23.218;2023-06-26T06:02:56;15.93;;;11.33;;
43552;SDS011;29153;42.696;23.218;2023-06-26T06:05:29;14.87;;;11.53;;
43552;SDS011;29153;42.696;23.218;2023-06-26T06:07:56;14.50;;;11.05;;
43552;SDS011;29153;42.696;23.218;2023-06-26T06:10:23;15.85;;;10.38;;
43552;SDS011;29153;42.696;23.218;2023-06-26T06:12:51;19.73;;;11.75;;
43552;SDS011;29153;42.696;23.218;2023-06-26T06:15:20;21.35;;;11.50;;
43552;SDS011;29153;42.696;23.218;2023-06-26T06:17:53;27.62;;;12.33;;
43552;SDS011;29153;42.696;23.218;2023-06-26T06:20:21;21.40;;;12.82;;
43552;SDS011;29153;42.696;23.218;2023-06-26T06:22:48;17.00;;;11.00;;
43552;SDS011;29153;42.696;23.218;2023-06-26T06:25:16;12.63;;;9.80;;
43552;SDS011;29153;42.696;23.218;2023-06-26T06:27:44;16.82;;;11.75;;
43552;SDS011;29153;42.696;23.218;2023-06-26T06:30:14;16.05;;;11.78;;
43552;SDS011;29153;42.696;23.218;2023-06-26T06:32:42;15.72;;;11.00;;
43552;SDS011;29153;42.696;23.218;2023-06-26T06:35:09;16.02;;;10.60;;
43552;SDS011;29153;42.696;23.218;2023-06-26T06:37:37;15.08;;;10.63;;
43552;SDS011;29153;42.696;23.218;2023-06-26T06:40:05;13.83;;;9.78;;
43552;SDS011;29153;42.696;23.218;2023-06-26T06:42:35;14.70;;;10.15;;
43552;SDS011;29153;42.696;23.218;2023-06-26T06:47:30;12.15;;;8.33;;
43552;SDS011;29153;42.696;23.218;2023-06-26T06:50:01;13.98;;;10.10;;
43552;SDS011;29153;42.696;23.218;2023-06-26T06:52:30;12.40;;;9.65;;
43552;SDS011;29153;42.696;23.218;2023-06-26T06:54:58;13.48;;;9.50;;
43552;SDS011;29153;42.696;23.218;2023-06-26T06:57:27;11.28;;;8.28;;
43552;SDS011;29153;42.696;23.218;2023-06-26T06:59:55;12.18;;;9.53;;
43552;SDS011;29153;42.696;23.218;2023-06-26T07:04:49;12.00;;;8.10;;
43552;SDS011;29153;42.696;23.218;2023-06-26T07:07:19;15.18;;;7.53;;
43552;SDS011;29153;42.696;23.218;2023-06-26T07:09:46;10.60;;;8.00;;
43552;SDS011;29153;42.696;23.218;2023-06-26T07:12:14;12.95;;;8.40;;
43552;SDS011;29153;42.696;23.218;2023-06-26T07:14:41;11.93;;;8.93;;
43552;SDS011;29153;42.696;23.218;2023-06-26T07:17:11;11.03;;;8.53;;
43552;SDS011;29153;42.696;23.218;2023-06-26T07:19:38;10.48;;;7.80;;
43552;SDS011;29153;42.696;23.218;2023-06-26T07:22:11;11.08;;;8.25;;
43552;SDS011;29153;42.696;23.218;2023-06-26T07:24:35;11.65;;;7.58;;
43552;SDS011;29153;42.696;23.218;2023-06-26T07:27:02;11.88;;;6.75;;
43552;SDS011;29153;42.696;23.218;2023-06-26T07:31:57;11.00;;;7.85;;
43552;SDS011;29153;42.696;23.218;2023-06-26T07:34:24;10.80;;;7.58;;
43552;SDS011;29153;42.696;23.218;2023-06-26T07:36:52;12.80;;;7.08;;
43552;SDS011;29153;42.696;23.218;2023-06-26T07:39:20;10.80;;;7.83;;
43552;SDS011;29153;42.696;23.218;2023-06-26T07:41:47;9.45;;;6.50;;
43552;SDS011;29153;42.696;23.218;2023-06-26T07:44:15;10.95;;;7.25;;
43552;SDS011;29153;42.696;23.218;2023-06-26T07:46:51;8.53;;;6.12;;
43552;SDS011;29153;42.696;23.218;2023-06-26T07:49:20;10.15;;;6.70;;
43552;SDS011;29153;42.696;23.218;2023-06-26T07:51:49;8.85;;;5.00;;
43552;SDS011;29153;42.696;23.218;2023-06-26T07:54:17;7.90;;;5.87;;
43552;SDS011;29153;42.696;23.218;2023-06-26T07:59:29;7.45;;;5.20;;
43552;SDS011;29153;42.696;23.218;2023-06-26T08:02:05;6.55;;;5.20;;
43552;SDS011;29153;42.696;23.218;2023-06-26T08:04:35;7.92;;;5.35;;
43552;SDS011;29153;42.696;23.218;2023-06-26T08:07:03;8.53;;;5.05;;
43552;SDS011;29153;42.696;23.218;2023-06-26T08:09:31;6.65;;;4.80;;
43552;SDS011;29153;42.696;23.218;2023-06-26T08:12:00;8.83;;;5.00;;
43552;SDS011;29153;42.696;23.218;2023-06-26T08:14:35;8.80;;;5.10;;
43552;SDS011;29153;42.696;23.218;2023-06-26T08:16:59;6.85;;;4.58;;
43552;SDS011;29153;42.696;23.218;2023-06-26T08:21:54;10.05;;;4.33;;
43552;SDS011;29153;42.696;23.218;2023-06-26T08:26:48;6.03;;;4.20;;
43552;SDS011;29153;42.696;23.218;2023-06-26T08:29:16;6.87;;;4.17;;
43552;SDS011;29153;42.696;23.218;2023-06-26T08:34:13;8.70;;;4.85;;
43552;SDS011;29153;42.696;23.218;2023-06-26T08:36:41;6.67;;;4.40;;
43552;SDS011;29153;42.696;23.218;2023-06-26T08:39:10;8.65;;;4.00;;
43552;SDS011;29153;42.696;23.218;2023-06-26T08:45:00;6.45;;;3.83;;
43552;SDS011;29153;42.696;23.218;2023-06-26T08:47:28;12.63;;;5.22;;
43552;SDS011;29153;42.696;23.218;2023-06-26T08:50:07;6.83;;;4.30;;
43552;SDS011;29153;42.696;23.218;2023-06-26T08:52:46;6.97;;;3.83;;
43552;SDS011;29153;42.696;23.218;2023-06-26T08:55:15;6.10;;;3.95;;
43552;SDS011;29153;42.696;23.218;2023-06-26T08:57:45;6.83;;;3.90;;
43552;SDS011;29153;42.696;23.218;2023-06-26T09:02:48;12.37;;;4.70;;
43552;SDS011;29153;42.696;23.218;2023-06-26T09:05:17;7.10;;;3.98;;
43552;SDS011;29153;42.696;23.218;2023-06-26T09:07:49;11.12;;;4.95;;
43552;SDS011;29153;42.696;23.218;2023-06-26T09:10:27;11.12;;;4.95;;
43552;SDS011;29153;42.696;23.218;2023-06-26T09:12:56;7.60;;;4.47;;
43552;SDS011;29153;42.696;23.218;2023-06-26T09:15:26;8.43;;;4.55;;
43552;SDS011;29153;42.696;23.218;2023-06-26T09:17:57;10.78;;;5.50;;
43552;SDS011;29153;42.696;23.218;2023-06-26T09:20:28;7.72;;;4.58;;
43552;SDS011;29153;42.696;23.218;2023-06-26T09:22:56;9.00;;;4.78;;
43552;SDS011;29153;42.696;23.218;2023-06-26T09:25:24;7.03;;;4.72;;
43552;SDS011;29153;42.696;23.218;2023-06-26T09:27:51;7.67;;;5.15;;
43552;SDS011;29153;42.696;23.218;2023-06-26T09:30:19;8.65;;;4.90;;
43552;SDS011;29153;42.696;23.218;2023-06-26T09:32:47;11.00;;;4.50;;
43552;SDS011;29153;42.696;23.218;2023-06-26T09:35:16;6.90;;;3.98;;
43552;SDS011;29153;42.696;23.218;2023-06-26T09:40:19;5.90;;;3.67;;
43552;SDS011;29153;42.696;23.218;2023-06-26T09:42:48;5.28;;;3.58;;
43552;SDS011;29153;42.696;23.218;2023-06-26T09:45:23;5.95;;;4.03;;
43552;SDS011;29153;42.696;23.218;2023-06-26T09:50:41;9.85;;;4.53;;
43552;SDS011;29153;42.696;23.218;2023-06-26T09:53:09;6.80;;;3.90;;
43552;SDS011;29153;42.696;23.218;2023-06-26T09:55:41;7.00;;;4.10;;
43552;SDS011;29153;42.696;23.218;2023-06-26T09:58:11;11.50;;;4.70;;
43552;SDS011;29153;42.696;23.218;2023-06-26T10:00:41;7.92;;;4.17;;
43552;SDS011;29153;42.696;23.218;2023-06-26T10:03:10;6.95;;;3.85;;
43552;SDS011;29153;42.696;23.218;2023-06-26T10:05:41;7.42;;;4.03;;
43552;SDS011;29153;42.696;23.218;2023-06-26T10:08:09;6.87;;;3.92;;
43552;SDS011;29153;42.696;23.218;2023-06-26T10:10:39;6.90;;;4.30;;
43552;SDS011;29153;42.696;23.218;2023-06-26T10:13:08;6.97;;;4.12;;
43552;SDS011;29153;42.696;23.218;2023-06-26T10:15:44;7.35;;;4.53;;
43552;SDS011;29153;42.696;23.218;2023-06-26T10:18:18;7.00;;;4.37;;
43552;SDS011;29153;42.696;23.218;2023-06-26T10:20:45;8.65;;;4.75;;
43552;SDS011;29153;42.696;23.218;2023-06-26T10:23:14;9.20;;;4.65;;
43552;SDS011;29153;42.696;23.218;2023-06-26T10:25:46;6.80;;;4.50;;
43552;SDS011;29153;42.696;23.218;2023-06-26T10:28:16;8.63;;;4.60;;
43552;SDS011;29153;42.696;23.218;2023-06-26T10:30:45;7.90;;;4.12;;
43552;SDS011;29153;42.696;23.218;2023-06-26T10:33:16;14.58;;;5.40;;
43552;SDS011;29153;42.696;23.218;2023-06-26T10:35:47;7.05;;;4.20;;
43552;SDS011;29153;42.696;23.218;2023-06-26T10:38:15;5.65;;;3.77;;
43552;SDS011;29153;42.696;23.218;2023-06-26T10:40:45;6.40;;;3.80;;
43552;SDS011;29153;42.696;23.218;2023-06-26T10:43:18;5.85;;;3.95;;
43552;SDS011;29153;42.696;23.218;2023-06-26T10:45:47;6.80;;;3.77;;
43552;SDS011;29153;42.696;23.218;2023-06-26T10:48:17;7.03;;;4.47;;
43552;SDS011;29153;42.696;23.218;2023-06-26T10:50:48;7.28;;;4.40;;
43552;SDS011;29153;42.696;23.218;2023-06-26T10:56:01;9.78;;;4.35;;
43552;SDS011;29153;42.696;23.218;2023-06-26T10:58:40;6.65;;;3.95;;
43552;SDS011;29153;42.696;23.218;2023-06-26T11:04:11;36.85;;;9.70;;
43552;SDS011;29153;42.696;23.218;2023-06-26T11:06:31;9.20;;;4.75;;
43552;SDS011;29153;42.696;23.218;2023-06-26T11:09:14;75.35;;;15.90;;
43552;SDS011;29153;42.696;23.218;2023-06-26T11:14:37;6.90;;;4.40;;
43552;SDS011;29153;42.696;23.218;2023-06-26T11:16:56;7.12;;;4.47;;
43552;SDS011;29153;42.696;23.218;2023-06-26T11:19:25;6.70;;;4.15;;
43552;SDS011;29153;42.696;23.218;2023-06-26T11:22:03;5.67;;;3.70;;
43552;SDS011;29153;42.696;23.218;2023-06-26T11:24:33;8.25;;;4.47;;
43552;SDS011;29153;42.696;23.218;2023-06-26T11:27:01;6.78;;;4.03;;
43552;SDS011;29153;42.696;23.218;2023-06-26T11:29:29;6.33;;;3.77;;
43552;SDS011;29153;42.696;23.218;2023-06-26T11:32:01;16.62;;;5.67;;
43552;SDS011;29153;42.696;23.218;2023-06-26T11:34:31;7.08;;;4.03;;
43552;SDS011;29153;42.696;23.218;2023-06-26T11:36:59;7.55;;;3.90;;
43552;SDS011;29153;42.696;23.218;2023-06-26T11:39:27;6.33;;;3.98;;
43552;SDS011;29153;42.696;23.218;2023-06-26T11:41:56;7.90;;;4.10;;
43552;SDS011;29153;42.696;23.218;2023-06-26T11:44:30;7.75;;;5.37;;
43552;SDS011;29153;42.696;23.218;2023-06-26T11:46:58;7.37;;;4.45;;
43552;SDS011;29153;42.696;23.218;2023-06-26T11:51:54;8.18;;;3.92;;
43552;SDS011;29153;42.696;23.218;2023-06-26T11:54:24;8.75;;;4.10;;
43552;SDS011;29153;42.696;23.218;2023-06-26T11:57:02;8.18;;;4.87;;
43552;SDS011;29153;42.696;23.218;2023-06-26T11:59:36;7.20;;;4.53;;
43552;SDS011;29153;42.696;23.218;2023-06-26T12:02:09;6.72;;;4.33;;
43552;SDS011;29153;42.696;23.218;2023-06-26T12:04:37;6.03;;;3.90;;
43552;SDS011;29153;42.696;23.218;2023-06-26T12:07:09;7.62;;;4.40;;
43552;SDS011;29153;42.696;23.218;2023-06-26T12:09:41;9.43;;;4.00;;
43552;SDS011;29153;42.696;23.218;2023-06-26T12:12:13;8.35;;;3.77;;
43552;SDS011;29153;42.696;23.218;2023-06-26T12:14:43;6.20;;;3.50;;
43552;SDS011;29153;42.696;23.218;2023-06-26T12:17:12;7.30;;;3.77;;
43552;SDS011;29153;42.696;23.218;2023-06-26T12:19:45;7.35;;;3.70;;
43552;SDS011;29153;42.696;23.218;2023-06-26T12:22:17;6.10;;;3.33;;
43552;SDS011;29153;42.696;23.218;2023-06-26T12:24:46;6.35;;;3.80;;
43552;SDS011;29153;42.696;23.218;2023-06-26T12:27:15;6.83;;;3.85;;
43552;SDS011;29153;42.696;23.218;2023-06-26T12:29:51;8.78;;;4.40;;
43552;SDS011;29153;42.696;23.218;2023-06-26T12:32:21;6.40;;;4.92;;
43552;SDS011;29153;42.696;23.218;2023-06-26T12:34:50;7.35;;;4.25;;
43552;SDS011;29153;42.696;23.218;2023-06-26T12:37:18;8.08;;;4.65;;
43552;SDS011;29153;42.696;23.218;2023-06-26T12:39:50;7.22;;;4.40;;
43552;SDS011;29153;42.696;23.218;2023-06-26T12:42:19;5.80;;;4.10;;
43552;SDS011;29153;42.696;23.218;2023-06-26T12:44:54;6.65;;;4.85;;
43552;SDS011;29153;42.696;23.218;2023-06-26T12:47:23;6.70;;;3.90;;
43552;SDS011;29153;42.696;23.218;2023-06-26T12:49:55;6.83;;;3.75;;
43552;SDS011;29153;42.696;23.218;2023-06-26T12:52:23;7.50;;;3.95;;
43552;SDS011;29153;42.696;23.218;2023-06-26T12:54:51;7.72;;;3.75;;
43552;SDS011;29153;42.696;23.218;2023-06-26T12:57:21;9.70;;;4.80;;
43552;SDS011;29153;42.696;23.218;2023-06-26T12:59:49;6.08;;;4.08;;
43552;SDS011;29153;42.696;23.218;2023-06-26T13:02:16;9.50;;;4.10;;
43552;SDS011;29153;42.696;23.218;2023-06-26T13:04:47;5.80;;;3.95;;
43552;SDS011;29153;42.696;23.218;2023-06-26T13:07:31;6.83;;;4.28;;
43552;SDS011;29153;42.696;23.218;2023-06-26T13:09:59;6.87;;;4.53;;
43552;SDS011;29153;42.696;23.218;2023-06-26T13:14:53;4.75;;;3.05;;
43552;SDS011;29153;42.696;23.218;2023-06-26T13:19:48;5.42;;;3.30;;
43552;SDS011;29153;42.696;23.218;2023-06-26T13:22:15;6.12;;;3.42;;
43552;SDS011;29153;42.696;23.218;2023-06-26T13:24:43;8.38;;;3.50;;
43552;SDS011;29153;42.696;23.218;2023-06-26T13:27:11;6.25;;;3.85;;
43552;SDS011;29153;42.696;23.218;2023-06-26T13:29:42;9.03;;;3.42;;
43552;SDS011;29153;42.696;23.218;2023-06-26T13:32:11;7.40;;;3.70;;
43552;SDS011;29153;42.696;23.218;2023-06-26T13:34:39;6.65;;;4.78;;
43552;SDS011;29153;42.696;23.218;2023-06-26T13:37:07;5.95;;;3.35;;
43552;SDS011;29153;42.696;23.218;2023-06-26T13:46:59;5.42;;;3.55;;
43552;SDS011;29153;42.696;23.218;2023-06-26T13:49:28;6.65;;;3.55;;
43552;SDS011;29153;42.696;23.218;2023-06-26T13:51:55;7.05;;;3.98;;
43552;SDS011;29153;42.696;23.218;2023-06-26T13:54:23;7.58;;;4.03;;
43552;SDS011;29153;42.696;23.218;2023-06-26T13:56:51;7.78;;;4.22;;
43552;SDS011;29153;42.696;23.218;2023-06-26T13:59:20;7.20;;;4.62;;
43552;SDS011;29153;42.696;23.218;2023-06-26T14:04:31;7.15;;;4.72;;
43552;SDS011;29153;42.696;23.218;2023-06-26T14:06:59;7.25;;;3.85;;
43552;SDS011;29153;42.696;23.218;2023-06-26T14:12:00;6.30;;;3.80;;
43552;SDS011;29153;42.696;23.218;2023-06-26T14:14:24;5.42;;;3.75;;
43552;SDS011;29153;42.696;23.218;2023-06-26T14:16:53;5.72;;;3.80;;
43552;SDS011;29153;42.696;23.218;2023-06-26T14:19:21;6.05;;;3.65;;
43552;SDS011;29153;42.696;23.218;2023-06-26T14:21:49;6.62;;;3.75;;
43552;SDS011;29153;42.696;23.218;2023-06-26T14:24:18;9.65;;;4.10;;
43552;SDS011;29153;42.696;23.218;2023-06-26T14:26:45;8.10;;;3.77;;
43552;SDS011;29153;42.696;23.218;2023-06-26T14:29:13;8.15;;;4.28;;
43552;SDS011;29153;42.696;23.218;2023-06-26T14:31:43;7.00;;;3.40;;
43552;SDS011;29153;42.696;23.218;2023-06-26T14:34:15;8.93;;;3.77;;
43552;SDS011;29153;42.696;23.218;2023-06-26T14:36:39;6.42;;;3.55;;
43552;SDS011;29153;42.696;23.218;2023-06-26T14:39:08;7.33;;;4.40;;
43552;SDS011;29153;42.696;23.218;2023-06-26T14:46:33;5.60;;;3.70;;
43552;SDS011;29153;42.696;23.218;2023-06-26T14:51:27;6.25;;;3.72;;
43552;SDS011;29153;42.696;23.218;2023-06-26T14:53:56;7.85;;;4.03;;
43552;SDS011;29153;42.696;23.218;2023-06-26T14:58:52;8.50;;;4.30;;
43552;SDS011;29153;42.696;23.218;2023-06-26T15:01:20;7.37;;;3.30;;
43552;SDS011;29153;42.696;23.218;2023-06-26T15:06:14;15.68;;;4.28;;
43552;SDS011;29153;42.696;23.218;2023-06-26T15:13:36;7.83;;;4.28;;
43552;SDS011;29153;42.696;23.218;2023-06-26T15:16:03;12.78;;;3.87;;
43552;SDS011;29153;42.696;23.218;2023-06-26T15:18:31;6.15;;;3.67;;
43552;SDS011;29153;42.696;23.218;2023-06-26T15:23:30;5.65;;;3.47;;
43552;SDS011;29153;42.696;23.218;2023-06-26T15:25:54;8.05;;;3.90;;
43552;SDS011;29153;42.696;23.218;2023-06-26T15:30:48;5.22;;;3.02;;
43552;SDS011;29153;42.696;23.218;2023-06-26T15:35:47;6.42;;;3.30;;
43552;SDS011;29153;42.696;23.218;2023-06-26T15:38:16;6.62;;;3.55;;
43552;SDS011;29153;42.696;23.218;2023-06-26T15:40:45;6.40;;;3.47;;
43552;SDS011;29153;42.696;23.218;2023-06-26T15:55:30;9.13;;;3.47;;
43552;SDS011;29153;42.696;23.218;2023-06-26T16:00:25;7.45;;;3.87;;
43552;SDS011;29153;42.696;23.218;2023-06-26T16:15:15;7.00;;;4.20;;
43552;SDS011;29153;42.696;23.218;2023-06-26T16:17:38;5.45;;;3.90;;
43552;SDS011;29153;42.696;23.218;2023-06-26T16:20:07;7.33;;;3.83;;
43552;SDS011;29153;42.696;23.218;2023-06-26T16:22:37;5.25;;;3.83;;
43552;SDS011;29153;42.696;23.218;2023-06-26T16:25:05;6.30;;;3.80;;
43552;SDS011;29153;42.696;23.218;2023-06-26T16:27:40;4.92;;;3.75;;
43552;SDS011;29153;42.696;23.218;2023-06-26T16:30:13;6.55;;;4.28;;
43552;SDS011;29153;42.696;23.218;2023-06-26T16:32:41;5.20;;;3.75;;
43552;SDS011;29153;42.696;23.218;2023-06-26T16:35:10;6.35;;;3.75;;
43552;SDS011;29153;42.696;23.218;2023-06-26T16:42:32;9.80;;;3.70;;